sensor_id;sensor_type;location;lat;lon;timestamp;pressure;altitude;pressure_sealevel;temperature;humidity
69848;BME280;57143;55.940;37.496;2024-02-26T00:02:03;100738.41;;;-0.56;100.00
69848;BME280;57143;55.940;37.496;2024-02-26T00:04:31;100733.41;;;-0.60;100.00
69848;BME280;57143;55.940;37.496;2024-02-26T00:06:58;100728.09;;;-0.60;100.00
69848;BME280;57143;55.940;37.496;2024-02-26T00:09:27;100720.22;;;-0.62;100.00
69848;BME280;57143;55.940;37.496;2024-02-26T00:11:54;100725.69;;;-0.63;100.00
69848;BME280;57143;55.940;37.496;2024-02-26T00:14:21;100714.09;;;-0.62;100.00
69848;BME280;57143;55.940;37.496;2024-02-26T00:16:49;100723.50;;;-0.58;100.00
69848;BME280;57143;55.940;37.496;2024-02-26T00:19:16;100712.63;;;-0.66;100.00
69848;BME280;57143;55.940;37.496;2024-02-26T00:21:43;100705.09;;;-0.72;100.00
69848;BME280;57143;55.940;37.496;2024-02-26T00:24:11;100704.25;;;-0.62;100.00
69848;BME280;57143;55.940;37.496;2024-02-26T00:26:39;100706.56;;;-0.57;100.00
69848;BME280;57143;55.940;37.496;2024-02-26T00:29:07;100696.75;;;-0.57;100.00
69848;BME280;57143;55.940;37.496;2024-02-26T00:31:34;100687.81;;;-0.56;100.00
69848;BME280;57143;55.940;37.496;2024-02-26T00:34:03;100693.59;;;-0.51;100.00
69848;BME280;57143;55.940;37.496;2024-02-26T00:36:30;100684.03;;;-0.53;100.00
69848;BME280;57143;55.940;37.496;2024-02-26T00:38:58;100683.91;;;-0.52;100.00
69848;BME280;57143;55.940;37.496;2024-02-26T00:41:25;100661.06;;;-0.54;100.00
69848;BME280;57143;55.940;37.496;2024-02-26T00:43:54;100655.75;;;-0.54;100.00
69848;BME280;57143;55.940;37.496;2024-02-26T00:46:21;100661.53;;;-0.49;100.00
69848;BME280;57143;55.940;37.496;2024-02-26T00:48:49;100652.81;;;-0.51;100.00
69848;BME280;57143;55.940;37.496;2024-02-26T00:51:16;100646.63;;;-0.52;100.00
69848;BME280;57143;55.940;37.496;2024-02-26T00:53:43;100652.81;;;-0.51;100.00
69848;BME280;57143;55.940;37.496;2024-02-26T00:56:11;100650.63;;;-0.46;100.00
69848;BME280;57143;55.940;37.496;2024-02-26T00:58:38;100648.81;;;-0.46;100.00
69848;BME280;57143;55.940;37.496;2024-02-26T01:01:06;100650.50;;;-0.45;100.00
69848;BME280;57143;55.940;37.496;2024-02-26T01:03:34;100641.91;;;-0.48;100.00
69848;BME280;57143;55.940;37.496;2024-02-26T01:06:01;100625.59;;;-0.55;100.00
69848;BME280;57143;55.940;37.496;2024-02-26T01:08:28;100649.44;;;-0.53;100.00
69848;BME280;57143;55.940;37.496;2024-02-26T01:10:57;100652.72;;;-0.61;100.00
69848;BME280;57143;55.940;37.496;2024-02-26T01:13:24;100662.88;;;-0.55;100.00
69848;BME280;57143;55.940;37.496;2024-02-26T01:15:51;100660.59;;;-0.59;100.00
69848;BME280;57143;55.940;37.496;2024-02-26T01:18:20;100660.34;;;-0.56;100.00
69848;BME280;57143;55.940;37.496;2024-02-26T01:20:48;100659.38;;;-0.55;100.00
69848;BME280;57143;55.940;37.496;2024-02-26T01:23:15;100661.78;;;-0.63;100.00
69848;BME280;57143;55.940;37.496;2024-02-26T01:25:42;100660.84;;;-0.73;100.00
69848;BME280;57143;55.940;37.496;2024-02-26T01:28:10;100657.47;;;-0.64;100.00
69848;BME280;57143;55.940;37.496;2024-02-26T01:30:37;100655.88;;;-0.67;100.00
69848;BME280;57143;55.940;37.496;2024-02-26T01:33:04;100653.59;;;-0.71;100.00
69848;BME280;57143;55.940;37.496;2024-02-26T01:35:33;100660.34;;;-0.67;100.00
69848;BME280;57143;55.940;37.496;2024-02-26T01:38:00;100657.59;;;-0.66;100.00
69848;BME280;57143;55.940;37.496;2024-02-26T01:40:28;100662.91;;;-0.66;100.00
69848;BME280;57143;55.940;37.496;2024-02-26T01:42:55;100654.06;;;-0.66;100.00
69848;BME280;57143;55.940;37.496;2024-02-26T01:45:23;100642.56;;;-0.67;100.00
69848;BME280;57143;55.940;37.496;2024-02-26T01:47:51;100649.34;;;-0.63;100.00
69848;BME280;57143;55.940;37.496;2024-02-26T01:50:19;100643.81;;;-0.71;100.00
69848;BME280;57143;55.940;37.496;2024-02-26T01:52:50;100640.63;;;-0.65;100.00
69848;BME280;57143;55.940;37.496;2024-02-26T01:55:17;100632.78;;;-0.66;100.00
69848;BME280;57143;55.940;37.496;2024-02-26T01:57:48;100618.38;;;-0.75;100.00
69848;BME280;57143;55.940;37.496;2024-02-26T02:00:18;100623.72;;;-0.75;100.00
69848;BME280;57143;55.940;37.496;2024-02-26T02:02:47;100613.53;;;-0.70;100.00
69848;BME280;57143;55.940;37.496;2024-02-26T02:05:15;100623.47;;;-0.72;100.00
69848;BME280;57143;55.940;37.496;2024-02-26T02:07:44;100622.84;;;-0.75;100.00
69848;BME280;57143;55.940;37.496;2024-02-26T02:10:14;100625.88;;;-0.69;100.00
69848;BME280;57143;55.940;37.496;2024-02-26T02:12:43;100617.19;;;-0.71;100.00
69848;BME280;57143;55.940;37.496;2024-02-26T02:15:11;100620.53;;;-0.69;100.00
69848;BME280;57143;55.940;37.496;2024-02-26T02:17:39;100613.19;;;-0.76;100.00
69848;BME280;57143;55.940;37.496;2024-02-26T02:20:08;100609.69;;;-0.77;100.00
69848;BME280;57143;55.940;37.496;2024-02-26T02:22:37;100613.06;;;-0.75;100.00
69848;BME280;57143;55.940;37.496;2024-02-26T02:25:05;100599.88;;;-0.76;100.00
69848;BME280;57143;55.940;37.496;2024-02-26T02:27:33;100580.53;;;-0.89;100.00
69848;BME280;57143;55.940;37.496;2024-02-26T02:30:01;100605.94;;;-0.74;100.00
69848;BME280;57143;55.940;37.496;2024-02-26T02:32:31;100584.31;;;-0.92;100.00
69848;BME280;57143;55.940;37.496;2024-02-26T02:34:59;100615.38;;;-0.81;100.00
69848;BME280;57143;55.940;37.496;2024-02-26T02:37:26;100590.34;;;-0.90;100.00
69848;BME280;57143;55.940;37.496;2024-02-26T02:39:55;100602.69;;;-0.89;100.00
69848;BME280;57143;55.940;37.496;2024-02-26T02:42:24;100598.81;;;-0.96;100.00
69848;BME280;57143;55.940;37.496;2024-02-26T02:44:51;100601.81;;;-0.89;100.00
69848;BME280;57143;55.940;37.496;2024-02-26T02:47:18;100586.59;;;-0.87;100.00
69848;BME280;57143;55.940;37.496;2024-02-26T02:49:46;100590.84;;;-0.96;100.00
69848;BME280;57143;55.940;37.496;2024-02-26T02:52:13;100578.38;;;-1.06;100.00
69848;BME280;57143;55.940;37.496;2024-02-26T02:54:41;100592.91;;;-0.88;100.00
69848;BME280;57143;55.940;37.496;2024-02-26T02:57:10;100584.06;;;-0.89;100.00
69848;BME280;57143;55.940;37.496;2024-02-26T02:59:37;100569.28;;;-0.93;100.00
69848;BME280;57143;55.940;37.496;2024-02-26T03:02:05;100575.34;;;-0.91;100.00
69848;BME280;57143;55.940;37.496;2024-02-26T03:04:32;100577.75;;;-0.88;100.00
69848;BME280;57143;55.940;37.496;2024-02-26T03:07:00;100566.63;;;-0.82;100.00
69848;BME280;57143;55.940;37.496;2024-02-26T03:09:28;100563.75;;;-0.90;100.00
69848;BME280;57143;55.940;37.496;2024-02-26T03:11:55;100554.56;;;-0.97;100.00
69848;BME280;57143;55.940;37.496;2024-02-26T03:14:24;100561.69;;;-0.97;100.00
69848;BME280;57143;55.940;37.496;2024-02-26T03:16:54;100563.16;;;-0.93;100.00
69848;BME280;57143;55.940;37.496;2024-02-26T03:19:21;100553.34;;;-0.93;100.00
69848;BME280;57143;55.940;37.496;2024-02-26T03:21:48;100546.59;;;-0.97;100.00
69848;BME280;57143;55.940;37.496;2024-02-26T03:24:16;100557.22;;;-0.97;100.00
69848;BME280;57143;55.940;37.496;2024-02-26T03:26:43;100544.06;;;-0.98;100.00
69848;BME280;57143;55.940;37.496;2024-02-26T03:29:10;100542.00;;;-0.95;100.00
69848;BME280;57143;55.940;37.496;2024-02-26T03:31:39;100533.28;;;-0.97;100.00
69848;BME280;57143;55.940;37.496;2024-02-26T03:34:06;100539.69;;;-0.99;100.00
69848;BME280;57143;55.940;37.496;2024-02-26T03:36:34;100542.22;;;-0.98;100.00
69848;BME280;57143;55.940;37.496;2024-02-26T03:39:02;100525.09;;;-1.16;100.00
69848;BME280;57143;55.940;37.496;2024-02-26T03:41:30;100532.91;;;-1.03;100.00
69848;BME280;57143;55.940;37.496;2024-02-26T03:43:58;100526.03;;;-1.06;100.00
69848;BME280;57143;55.940;37.496;2024-02-26T03:46:25;100513.00;;;-1.20;100.00
69848;BME280;57143;55.940;37.496;2024-02-26T03:48:54;100525.78;;;-1.03;100.00
69848;BME280;57143;55.940;37.496;2024-02-26T03:51:21;100529.31;;;-1.02;100.00
69848;BME280;57143;55.940;37.496;2024-02-26T03:53:49;100512.16;;;-1.09;100.00
69848;BME280;57143;55.940;37.496;2024-02-26T03:56:16;100496.56;;;-1.14;100.00
69848;BME280;57143;55.940;37.496;2024-02-26T03:58:43;100493.66;;;-1.11;100.00
69848;BME280;57143;55.940;37.496;2024-02-26T04:01:10;100494.38;;;-1.09;100.00
69848;BME280;57143;55.940;37.496;2024-02-26T04:03:38;100493.66;;;-1.11;100.00
69848;BME280;57143;55.940;37.496;2024-02-26T04:06:08;100499.22;;;-1.14;100.00
69848;BME280;57143;55.940;37.496;2024-02-26T04:08:35;100504.56;;;-1.14;100.00
69848;BME280;57143;55.940;37.496;2024-02-26T04:11:03;100492.81;;;-1.11;100.00
69848;BME280;57143;55.940;37.496;2024-02-26T04:13:33;100478.69;;;-1.23;100.00
69848;BME280;57143;55.940;37.496;2024-02-26T04:16:01;100480.50;;;-1.24;100.00
69848;BME280;57143;55.940;37.496;2024-02-26T04:18:28;100498.50;;;-1.16;100.00
69848;BME280;57143;55.940;37.496;2024-02-26T04:20:55;100512.16;;;-1.21;100.00
69848;BME280;57143;55.940;37.496;2024-02-26T04:23:25;100502.50;;;-1.22;100.00
69848;BME280;57143;55.940;37.496;2024-02-26T04:25:52;100493.91;;;-1.25;100.00
69848;BME280;57143;55.940;37.496;2024-02-26T04:28:20;100492.34;;;-1.28;100.00
69848;BME280;57143;55.940;37.496;2024-02-26T04:30:47;100499.38;;;-1.27;100.00
69848;BME280;57143;55.940;37.496;2024-02-26T04:33:15;100485.34;;;-1.29;100.00
69848;BME280;57143;55.940;37.496;2024-02-26T04:35:42;100484.75;;;-1.32;100.00
69848;BME280;57143;55.940;37.496;2024-02-26T04:38:10;100480.75;;;-1.38;100.00
69848;BME280;57143;55.940;37.496;2024-02-26T04:40:38;100476.41;;;-1.39;100.00
69848;BME280;57143;55.940;37.496;2024-02-26T04:43:06;100505.53;;;-1.26;100.00
69848;BME280;57143;55.940;37.496;2024-02-26T04:45:33;100493.19;;;-1.27;100.00
69848;BME280;57143;55.940;37.496;2024-02-26T04:48:01;100501.50;;;-1.21;100.00
69848;BME280;57143;55.940;37.496;2024-02-26T04:50:28;100510.72;;;-1.25;100.00
69848;BME280;57143;55.940;37.496;2024-02-26T04:52:56;100506.84;;;-1.21;100.00
69848;BME280;57143;55.940;37.496;2024-02-26T04:55:23;100503.34;;;-1.21;100.00
69848;BME280;57143;55.940;37.496;2024-02-26T04:57:52;100510.34;;;-1.20;100.00
69848;BME280;57143;55.940;37.496;2024-02-26T05:00:19;100502.03;;;-1.27;100.00
69848;BME280;57143;55.940;37.496;2024-02-26T05:02:47;100499.63;;;-1.30;100.00
69848;BME280;57143;55.940;37.496;2024-02-26T05:05:14;100504.56;;;-1.25;100.00
69848;BME280;57143;55.940;37.496;2024-02-26T05:07:41;100496.19;;;-1.21;100.00
69848;BME280;57143;55.940;37.496;2024-02-26T05:10:09;100497.06;;;-1.20;100.00
69848;BME280;57143;55.940;37.496;2024-02-26T05:12:37;100496.31;;;-1.22;100.00
69848;BME280;57143;55.940;37.496;2024-02-26T05:15:07;100484.88;;;-1.23;100.00
69848;BME280;57143;55.940;37.496;2024-02-26T05:17:34;100475.44;;;-1.27;100.00
69848;BME280;57143;55.940;37.496;2024-02-26T05:20:02;100477.38;;;-1.29;100.00
69848;BME280;57143;55.940;37.496;2024-02-26T05:22:30;100483.41;;;-1.27;100.00
69848;BME280;57143;55.940;37.496;2024-02-26T05:24:57;100479.03;;;-1.28;100.00
69848;BME280;57143;55.940;37.496;2024-02-26T05:27:24;100464.06;;;-1.40;100.00
69848;BME280;57143;55.940;37.496;2024-02-26T05:29:52;100487.28;;;-1.31;100.00
69848;BME280;57143;55.940;37.496;2024-02-26T05:32:21;100465.53;;;-1.36;100.00
69848;BME280;57143;55.940;37.496;2024-02-26T05:34:48;100483.28;;;-1.25;100.00
69848;BME280;57143;55.940;37.496;2024-02-26T05:37:16;100487.28;;;-1.20;100.00
69848;BME280;57143;55.940;37.496;2024-02-26T05:39:43;100491.38;;;-1.27;100.00
69848;BME280;57143;55.940;37.496;2024-02-26T05:42:11;100493.19;;;-1.16;100.00
69848;BME280;57143;55.940;37.496;2024-02-26T05:44:38;100499.59;;;-1.19;100.00
69848;BME280;57143;55.940;37.496;2024-02-26T05:47:05;100494.38;;;-1.09;100.00
69848;BME280;57143;55.940;37.496;2024-02-26T05:49:34;100484.44;;;-1.07;100.00
69848;BME280;57143;55.940;37.496;2024-02-26T05:52:01;100495.31;;;-0.99;100.00
69848;BME280;57143;55.940;37.496;2024-02-26T05:54:29;100491.53;;;-0.96;100.00
69848;BME280;57143;55.940;37.496;2024-02-26T05:56:56;100475.38;;;-1.04;100.00
69848;BME280;57143;55.940;37.496;2024-02-26T05:59:24;100486.19;;;-0.85;100.00
69848;BME280;57143;55.940;37.496;2024-02-26T06:01:51;100483.56;;;-0.96;100.00
69848;BME280;57143;55.940;37.496;2024-02-26T06:04:19;100494.69;;;-0.91;100.00
69848;BME280;57143;55.940;37.496;2024-02-26T06:06:47;100499.31;;;-0.93;100.00
69848;BME280;57143;55.940;37.496;2024-02-26T06:09:15;100509.75;;;-0.81;100.00
69848;BME280;57143;55.940;37.496;2024-02-26T06:11:42;100504.91;;;-0.76;100.00
69848;BME280;57143;55.940;37.496;2024-02-26T06:14:10;100505.03;;;-0.77;100.00
69848;BME280;57143;55.940;37.496;2024-02-26T06:16:39;100504.22;;;-0.89;100.00
69848;BME280;57143;55.940;37.496;2024-02-26T06:19:06;100503.34;;;-0.78;100.00
69848;BME280;57143;55.940;37.496;2024-02-26T06:21:33;100506.47;;;-0.73;100.00
69848;BME280;57143;55.940;37.496;2024-02-26T06:24:02;100505.88;;;-0.66;100.00
69848;BME280;57143;55.940;37.496;2024-02-26T06:26:30;100500.28;;;-0.63;100.00
69848;BME280;57143;55.940;37.496;2024-02-26T06:28:59;100517.38;;;-0.45;100.00
69848;BME280;57143;55.940;37.496;2024-02-26T06:31:26;100501.03;;;-0.40;100.00
69848;BME280;57143;55.940;37.496;2024-02-26T06:33:55;100490.84;;;-0.35;100.00
69848;BME280;57143;55.940;37.496;2024-02-26T06:36:22;100487.50;;;-0.48;100.00
69848;BME280;57143;55.940;37.496;2024-02-26T06:38:50;100466.53;;;-0.42;100.00
69848;BME280;57143;55.940;37.496;2024-02-26T06:41:19;100447.78;;;-0.40;100.00
69848;BME280;57143;55.940;37.496;2024-02-26T06:43:46;100467.63;;;-0.44;100.00
69848;BME280;57143;55.940;37.496;2024-02-26T06:46:14;100456.72;;;-0.41;100.00
69848;BME280;57143;55.940;37.496;2024-02-26T06:48:41;100454.19;;;-0.43;100.00
69848;BME280;57143;55.940;37.496;2024-02-26T06:51:08;100451.34;;;-0.30;100.00
69848;BME280;57143;55.940;37.496;2024-02-26T06:53:36;100443.78;;;-0.25;100.00
69848;BME280;57143;55.940;37.496;2024-02-26T06:56:04;100435.50;;;-0.32;100.00
69848;BME280;57143;55.940;37.496;2024-02-26T06:58:33;100438.75;;;-0.28;100.00
69848;BME280;57143;55.940;37.496;2024-02-26T07:01:00;100423.25;;;-0.14;100.00
69848;BME280;57143;55.940;37.496;2024-02-26T07:03:28;100428.84;;;-0.17;100.00
69848;BME280;57143;55.940;37.496;2024-02-26T07:05:56;100430.16;;;-0.11;100.00
69848;BME280;57143;55.940;37.496;2024-02-26T07:08:23;100417.56;;;0.00;100.00
69848;BME280;57143;55.940;37.496;2024-02-26T07:10:51;100408.28;;;-0.05;100.00
69848;BME280;57143;55.940;37.496;2024-02-26T07:13:18;100404.69;;;0.06;100.00
69848;BME280;57143;55.940;37.496;2024-02-26T07:15:48;100408.06;;;0.08;100.00
69848;BME280;57143;55.940;37.496;2024-02-26T07:18:15;100386.63;;;0.09;100.00
69848;BME280;57143;55.940;37.496;2024-02-26T07:20:42;100384.44;;;0.24;100.00
69848;BME280;57143;55.940;37.496;2024-02-26T07:23:10;100375.50;;;0.34;100.00
69848;BME280;57143;55.940;37.496;2024-02-26T07:25:40;100381.13;;;0.41;100.00
69848;BME280;57143;55.940;37.496;2024-02-26T07:28:08;100375.78;;;0.50;100.00
69848;BME280;57143;55.940;37.496;2024-02-26T07:30:35;100349.25;;;0.49;100.00
69848;BME280;57143;55.940;37.496;2024-02-26T07:33:04;100349.41;;;0.47;100.00
69848;BME280;57143;55.940;37.496;2024-02-26T07:35:32;100333.00;;;0.61;100.00
69848;BME280;57143;55.940;37.496;2024-02-26T07:37:59;100332.31;;;0.59;100.00
69848;BME280;57143;55.940;37.496;2024-02-26T07:40:27;100323.91;;;0.92;100.00
69848;BME280;57143;55.940;37.496;2024-02-26T07:42:54;100296.38;;;1.01;100.00
69848;BME280;57143;55.940;37.496;2024-02-26T07:45:22;100263.00;;;1.25;100.00
69848;BME280;57143;55.940;37.496;2024-02-26T07:47:49;100233.38;;;1.18;100.00
69848;BME280;57143;55.940;37.496;2024-02-26T07:50:19;100209.69;;;1.42;100.00
69848;BME280;57143;55.940;37.496;2024-02-26T07:52:46;100167.34;;;1.47;100.00
69848;BME280;57143;55.940;37.496;2024-02-26T07:55:14;100151.63;;;1.44;100.00
69848;BME280;57143;55.940;37.496;2024-02-26T07:57:42;100140.41;;;1.41;100.00
69848;BME280;57143;55.940;37.496;2024-02-26T08:00:10;100134.38;;;1.11;100.00
69848;BME280;57143;55.940;37.496;2024-02-26T08:02:42;100141.59;;;0.92;100.00
69848;BME280;57143;55.940;37.496;2024-02-26T08:05:10;100160.75;;;0.68;100.00
69848;BME280;57143;55.940;37.496;2024-02-26T08:07:38;100188.69;;;0.74;100.00
69848;BME280;57143;55.940;37.496;2024-02-26T08:10:07;100179.88;;;0.64;100.00
69848;BME280;57143;55.940;37.496;2024-02-26T08:12:34;100197.09;;;0.79;100.00
69848;BME280;57143;55.940;37.496;2024-02-26T08:15:02;100204.66;;;0.83;100.00
69848;BME280;57143;55.940;37.496;2024-02-26T08:17:30;100200.06;;;0.76;100.00
69848;BME280;57143;55.940;37.496;2024-02-26T08:19:59;100211.75;;;0.65;100.00
69848;BME280;57143;55.940;37.496;2024-02-26T08:22:26;100228.16;;;0.61;100.00
69848;BME280;57143;55.940;37.496;2024-02-26T08:24:55;100237.84;;;0.43;100.00
69848;BME280;57143;55.940;37.496;2024-02-26T08:27:22;100245.44;;;0.38;100.00
69848;BME280;57143;55.940;37.496;2024-02-26T08:29:49;100234.19;;;0.44;100.00
69848;BME280;57143;55.940;37.496;2024-02-26T08:32:17;100259.72;;;0.75;100.00
69848;BME280;57143;55.940;37.496;2024-02-26T08:34:44;100239.81;;;0.60;100.00
69848;BME280;57143;55.940;37.496;2024-02-26T08:37:11;100235.16;;;0.52;100.00
69848;BME280;57143;55.940;37.496;2024-02-26T08:39:39;100237.41;;;0.66;100.00
69848;BME280;57143;55.940;37.496;2024-02-26T08:42:07;100220.56;;;0.56;100.00
69848;BME280;57143;55.940;37.496;2024-02-26T08:44:35;100218.44;;;0.69;100.00
69848;BME280;57143;55.940;37.496;2024-02-26T08:47:02;100218.56;;;0.96;100.00
69848;BME280;57143;55.940;37.496;2024-02-26T08:49:48;100194.09;;;1.01;100.00
69848;BME280;57143;55.940;37.496;2024-02-26T08:52:15;100172.69;;;1.10;100.00
69848;BME280;57143;55.940;37.496;2024-02-26T08:54:42;100159.56;;;0.99;100.00
69848;BME280;57143;55.940;37.496;2024-02-26T08:57:11;100153.31;;;0.72;100.00
69848;BME280;57143;55.940;37.496;2024-02-26T08:59:38;100157.50;;;0.84;100.00
69848;BME280;57143;55.940;37.496;2024-02-26T09:02:07;100137.50;;;1.07;100.00
69848;BME280;57143;55.940;37.496;2024-02-26T09:04:35;100139.00;;;1.09;100.00
69848;BME280;57143;55.940;37.496;2024-02-26T09:07:02;100146.06;;;1.01;100.00
69848;BME280;57143;55.940;37.496;2024-02-26T09:09:30;100146.38;;;0.98;100.00
69848;BME280;57143;55.940;37.496;2024-02-26T09:11:57;100156.97;;;1.17;100.00
69848;BME280;57143;55.940;37.496;2024-02-26T09:14:26;100139.19;;;0.98;100.00
69848;BME280;57143;55.940;37.496;2024-02-26T09:16:53;100147.81;;;1.19;100.00
69848;BME280;57143;55.940;37.496;2024-02-26T09:19:20;100141.53;;;1.11;100.00
69848;BME280;57143;55.940;37.496;2024-02-26T09:21:48;100147.09;;;1.27;100.00
69848;BME280;57143;55.940;37.496;2024-02-26T09:24:15;100135.00;;;1.23;100.00
69848;BME280;57143;55.940;37.496;2024-02-26T09:26:42;100130.97;;;1.19;100.00
69848;BME280;57143;55.940;37.496;2024-02-26T09:29:09;100115.09;;;1.45;100.00
69848;BME280;57143;55.940;37.496;2024-02-26T09:31:38;100098.56;;;1.59;100.00
69848;BME280;57143;55.940;37.496;2024-02-26T09:34:07;100087.78;;;1.51;100.00
69848;BME280;57143;55.940;37.496;2024-02-26T09:36:34;100089.13;;;1.37;100.00
69848;BME280;57143;55.940;37.496;2024-02-26T09:39:01;100099.75;;;1.19;100.00
69848;BME280;57143;55.940;37.496;2024-02-26T09:41:30;100101.69;;;1.27;100.00
69848;BME280;57143;55.940;37.496;2024-02-26T09:43:58;100101.16;;;1.24;100.00
69848;BME280;57143;55.940;37.496;2024-02-26T09:46:26;100100.00;;;1.26;100.00
69848;BME280;57143;55.940;37.496;2024-02-26T09:48:55;100079.47;;;1.27;100.00
69848;BME280;57143;55.940;37.496;2024-02-26T09:51:23;100091.16;;;1.26;100.00
69848;BME280;57143;55.940;37.496;2024-02-26T09:53:52;100080.59;;;1.51;100.00
69848;BME280;57143;55.940;37.496;2024-02-26T09:56:19;100069.00;;;1.43;100.00
69848;BME280;57143;55.940;37.496;2024-02-26T09:58:48;100043.38;;;1.23;100.00
69848;BME280;57143;55.940;37.496;2024-02-26T10:01:19;100065.97;;;1.28;100.00
69848;BME280;57143;55.940;37.496;2024-02-26T10:03:56;100047.28;;;1.28;100.00
69848;BME280;57143;55.940;37.496;2024-02-26T10:06:25;100056.53;;;1.34;100.00
69848;BME280;57143;55.940;37.496;2024-02-26T10:08:53;100054.47;;;1.45;100.00
69848;BME280;57143;55.940;37.496;2024-02-26T10:11:22;100059.63;;;1.56;100.00
69848;BME280;57143;55.940;37.496;2024-02-26T10:13:50;100044.19;;;1.50;100.00
69848;BME280;57143;55.940;37.496;2024-02-26T10:16:18;100044.97;;;1.43;100.00
69848;BME280;57143;55.940;37.496;2024-02-26T10:18:46;100049.31;;;1.44;100.00
69848;BME280;57143;55.940;37.496;2024-02-26T10:21:17;100047.94;;;1.57;100.00
69848;BME280;57143;55.940;37.496;2024-02-26T10:23:45;100034.72;;;1.56;100.00
69848;BME280;57143;55.940;37.496;2024-02-26T10:26:14;100034.06;;;1.36;100.00
69848;BME280;57143;55.940;37.496;2024-02-26T10:28:43;100043.16;;;1.43;100.00
69848;BME280;57143;55.940;37.496;2024-02-26T10:31:11;100035.50;;;1.48;100.00
69848;BME280;57143;55.940;37.496;2024-02-26T10:33:39;100026.72;;;1.56;100.00
69848;BME280;57143;55.940;37.496;2024-02-26T10:36:07;100034.19;;;1.52;100.00
69848;BME280;57143;55.940;37.496;2024-02-26T10:38:37;100031.66;;;1.33;100.00
69848;BME280;57143;55.940;37.496;2024-02-26T10:41:06;100027.94;;;1.44;100.00
69848;BME280;57143;55.940;37.496;2024-02-26T10:43:34;100028.78;;;1.62;100.00
69848;BME280;57143;55.940;37.496;2024-02-26T10:46:01;100014.59;;;1.61;100.00
69848;BME280;57143;55.940;37.496;2024-02-26T10:48:29;100017.25;;;1.44;100.00
69848;BME280;57143;55.940;37.496;2024-02-26T10:50:56;100006.66;;;1.34;100.00
69848;BME280;57143;55.940;37.496;2024-02-26T10:53:29;100013.75;;;1.61;100.00
69848;BME280;57143;55.940;37.496;2024-02-26T10:56:04;100012.69;;;1.54;100.00
69848;BME280;57143;55.940;37.496;2024-02-26T10:58:32;100001.31;;;1.52;100.00
69848;BME280;57143;55.940;37.496;2024-02-26T11:01:00;100014.97;;;1.49;100.00
69848;BME280;57143;55.940;37.496;2024-02-26T11:03:28;100001.00;;;1.55;100.00
69848;BME280;57143;55.940;37.496;2024-02-26T11:06:01;99987.88;;;1.79;100.00
69848;BME280;57143;55.940;37.496;2024-02-26T11:08:30;99985.75;;;1.65;100.00
69848;BME280;57143;55.940;37.496;2024-02-26T11:11:01;99983.22;;;1.81;100.00
69848;BME280;57143;55.940;37.496;2024-02-26T11:13:30;99984.13;;;1.72;100.00
69848;BME280;57143;55.940;37.496;2024-02-26T11:15:58;99974.84;;;1.41;100.00
69848;BME280;57143;55.940;37.496;2024-02-26T11:18:27;99979.56;;;1.29;100.00
69848;BME280;57143;55.940;37.496;2024-02-26T11:20:54;99996.22;;;1.58;100.00
69848;BME280;57143;55.940;37.496;2024-02-26T11:23:40;99991.13;;;1.73;100.00
69848;BME280;57143;55.940;37.496;2024-02-26T11:26:10;99977.03;;;1.80;100.00
69848;BME280;57143;55.940;37.496;2024-02-26T11:28:38;99969.56;;;1.49;100.00
69848;BME280;57143;55.940;37.496;2024-02-26T11:31:06;99976.22;;;1.45;100.00
69848;BME280;57143;55.940;37.496;2024-02-26T11:33:35;99993.00;;;1.55;100.00
69848;BME280;57143;55.940;37.496;2024-02-26T11:36:07;99986.28;;;1.51;100.00
69848;BME280;57143;55.940;37.496;2024-02-26T11:38:35;99995.03;;;1.61;100.00
69848;BME280;57143;55.940;37.496;2024-02-26T11:41:09;99996.91;;;1.60;100.00
69848;BME280;57143;55.940;37.496;2024-02-26T11:43:52;99985.19;;;1.79;100.00
69848;BME280;57143;55.940;37.496;2024-02-26T11:46:26;99982.75;;;1.50;100.00
69848;BME280;57143;55.940;37.496;2024-02-26T11:48:56;99986.91;;;1.45;100.00
69848;BME280;57143;55.940;37.496;2024-02-26T11:51:27;100001.38;;;1.42;100.00
69848;BME280;57143;55.940;37.496;2024-02-26T11:53:54;100005.44;;;1.46;100.00
69848;BME280;57143;55.940;37.496;2024-02-26T11:56:26;100013.38;;;1.56;100.00
69848;BME280;57143;55.940;37.496;2024-02-26T11:59:00;99969.06;;;1.28;100.00
69848;BME280;57143;55.940;37.496;2024-02-26T12:01:45;100008.94;;;1.29;100.00
69848;BME280;57143;55.940;37.496;2024-02-26T12:04:18;100025.19;;;1.36;100.00
69848;BME280;57143;55.940;37.496;2024-02-26T12:06:49;100023.19;;;1.20;100.00
69848;BME280;57143;55.940;37.496;2024-02-26T12:09:36;100042.75;;;1.11;100.00
69848;BME280;57143;55.940;37.496;2024-02-26T12:12:06;100051.06;;;1.08;100.00
69848;BME280;57143;55.940;37.496;2024-02-26T12:14:37;100073.13;;;1.10;100.00
69848;BME280;57143;55.940;37.496;2024-02-26T12:17:04;100062.31;;;1.11;100.00
69848;BME280;57143;55.940;37.496;2024-02-26T12:19:34;100068.97;;;0.98;100.00
69848;BME280;57143;55.940;37.496;2024-02-26T12:22:02;100077.38;;;1.03;100.00
69848;BME280;57143;55.940;37.496;2024-02-26T12:24:29;100066.56;;;0.95;100.00
69848;BME280;57143;55.940;37.496;2024-02-26T12:26:56;100085.47;;;1.11;100.00
69848;BME280;57143;55.940;37.496;2024-02-26T12:29:25;100078.06;;;1.05;100.00
69848;BME280;57143;55.940;37.496;2024-02-26T12:31:52;100087.16;;;1.12;100.00
69848;BME280;57143;55.940;37.496;2024-02-26T12:34:20;100073.66;;;1.13;100.00
69848;BME280;57143;55.940;37.496;2024-02-26T12:36:48;100082.06;;;1.18;100.00
69848;BME280;57143;55.940;37.496;2024-02-26T12:39:15;100084.69;;;1.28;100.00
69848;BME280;57143;55.940;37.496;2024-02-26T12:41:43;100080.53;;;1.16;100.00